Time;durP1;ratioP1;P1;durP2;ratioP2;P2;SDS_P1;SDS_P2;PMS_P1;PMS_P2;Temp;Humidity;BMP_temperature;BMP_pressure;BME280_temperature;BME280_humidity;BME280_pressure;Samples;Min_cycle;Max_cycle;Signal;HPM_P1;HPM_P2
2022/08/24 00:00:20;;;;;;;9.13;8.45;;;;;;;21.01;nan;94790.44;5042664;28;20206;-65
2022/08/24 00:02:49;;;;;;;9.43;8.45;;;;;;;21.19;nan;94792.47;5043602;28;20283;-66
2022/08/24 00:05:16;;;;;;;10.77;9.73;;;;;;;21.11;nan;94789.69;5043635;28;21689;-65
2022/08/24 00:07:43;;;;;;;10.02;9.25;;;;;;;21.27;nan;94792.75;5043695;28;20308;-65
2022/08/24 00:10:12;;;;;;;10.15;8.88;;;;;;;21.39;nan;94789.16;5044031;28;20587;-66
2022/08/24 00:12:39;;;;;;;12.63;7.65;;;;;;;21.53;nan;94794.03;5046032;28;20210;-65
2022/08/24 00:15:11;;;;;;;9.77;8.63;;;;;;;21.58;nan;94799.66;5046238;28;20692;-66
2022/08/24 00:17:38;;;;;;;11.75;8.75;;;;;;;21.69;nan;94802.19;5045780;28;20299;-66
2022/08/24 00:20:08;;;;;;;12.88;9.02;;;;;;;21.73;nan;94807.94;5044520;28;20206;-64
2022/08/24 00:22:35;;;;;;;10.98;9.27;;;;;;;21.70;nan;94808.19;5044537;28;20210;-65
2022/08/24 00:25:03;;;;;;;10.55;9.75;;;;;;;21.82;nan;94811.53;5046396;28;20191;-67
2022/08/24 00:27:29;;;;;;;9.30;8.50;;;;;;;21.66;nan;94812.78;5045958;28;21935;-66
2022/08/24 00:29:56;;;;;;;10.52;9.55;;;;;;;21.55;nan;94805.06;5046015;28;20280;-67
2022/08/24 00:32:23;;;;;;;10.73;9.70;;;;;;;21.65;nan;94816.31;5046398;28;20210;-66
2022/08/24 00:34:49;;;;;;;10.68;9.68;;;;;;;21.66;nan;94817.16;5047590;28;20206;-66
2022/08/24 00:37:18;;;;;;;10.48;9.57;;;;;;;21.61;nan;94820.09;5049174;28;20626;-66
2022/08/24 00:39:44;;;;;;;12.98;10.23;;;;;;;21.54;nan;94824.09;5049023;28;20206;-66
2022/08/24 00:42:11;;;;;;;12.02;10.77;;;;;;;21.45;nan;94814.53;5050092;28;20210;-65
2022/08/24 00:44:38;;;;;;;11.82;10.63;;;;;;;21.42;nan;94811.34;5049592;28;20695;-66
2022/08/24 00:47:11;;;;;;;16.45;11.38;;;;;;;21.37;nan;94817.72;5049115;28;20253;-66
2022/08/24 00:49:42;;;;;;;12.73;11.18;;;;;;;21.10;nan;94819.03;5048579;28;20203;-65
2022/08/24 00:52:15;;;;;;;18.00;10.98;;;;;;;21.12;nan;94817.97;5047539;28;21717;-66
2022/08/24 00:54:46;;;;;;;12.88;11.68;;;;;;;21.12;nan;94822.34;5049476;28;20202;-65
2022/08/24 00:57:17;;;;;;;12.18;11.15;;;;;;;20.96;nan;94817.56;5048451;28;20202;-66
2022/08/24 00:59:48;;;;;;;13.73;12.45;;;;;;;20.80;nan;94822.25;5046708;28;20568;-65
2022/08/24 01:02:20;;;;;;;13.65;12.30;;;;;;;20.89;nan;94813.81;5049559;28;20241;-67
2022/08/24 01:04:53;;;;;;;28.13;19.05;;;;;;;21.02;nan;94815.31;5047929;28;20225;-66
2022/08/24 01:07:22;;;;;;;42.38;28.17;;;;;;;20.92;nan;94816.97;5049140;28;20229;-66
2022/08/24 01:09:51;;;;;;;18.02;15.68;;;;;;;20.90;nan;94829.19;5047647;28;20202;-67
2022/08/24 01:12:18;;;;;;;17.85;14.40;;;;;;;20.96;nan;94828.72;5048047;28;20754;-66
2022/08/24 01:14:45;;;;;;;18.67;13.13;;;;;;;20.52;nan;94819.22;5048094;28;20983;-66
2022/08/24 01:19:58;;;;;;;16.75;14.90;;;;;;;20.51;nan;94829.69;5049342;28;20959;-65
2022/08/24 01:22:38;;;;;;;15.25;13.57;;;;;;;20.50;nan;94831.44;5048009;28;20206;-64
2022/08/24 01:25:07;;;;;;;21.02;15.90;;;;;;;19.96;nan;94846.69;5049615;28;20210;-66
2022/08/24 01:27:34;;;;;;;16.27;14.50;;;;;;;20.07;nan;94846.69;5048091;28;20725;-66
2022/08/24 01:30:03;;;;;;;16.08;14.40;;;;;;;20.17;nan;94845.09;5047126;28;20206;-66
2022/08/24 01:32:30;;;;;;;16.20;14.68;;;;;;;19.98;nan;94844.81;5046668;28;21282;-65
2022/08/24 01:34:57;;;;;;;21.55;16.00;;;;;;;19.69;nan;94845.19;5047760;28;20695;-65
2022/08/24 01:37:24;;;;;;;20.27;17.63;;;;;;;19.38;nan;94851.69;5048635;28;20210;-65
2022/08/24 01:39:55;;;;;;;22.50;16.00;;;;;;;19.06;nan;94854.88;5047914;28;20900;-65
2022/08/24 01:42:25;;;;;;;20.08;16.27;;;;;;;18.78;nan;94856.81;5047350;28;20206;-65
2022/08/24 01:44:52;;;;;;;21.17;15.63;;;;;;;18.65;nan;94859.41;5046910;28;20210;-66
2022/08/24 01:47:19;;;;;;;17.23;15.30;;;;;;;18.49;nan;94850.22;5048073;28;20257;-66
2022/08/24 01:49:48;;;;;;;22.20;18.67;;;;;;;18.67;nan;94843.84;5045597;28;20229;-65
2022/08/24 01:52:25;;;;;;;23.08;18.73;;;;;;;18.81;nan;94848.84;5048827;28;20297;-65
2022/08/24 01:54:52;;;;;;;24.73;16.98;;;;;;;18.95;nan;94853.88;5047144;28;20206;-65
2022/08/24 01:57:19;;;;;;;24.88;21.25;;;;;;;18.83;nan;94851.34;5043617;28;20202;-65
2022/08/24 01:59:47;;;;;;;24.92;20.02;;;;;;;18.77;nan;94854.34;5044872;28;20207;-65
2022/08/24 02:02:18;;;;;;;24.95;18.20;;;;;;;18.92;nan;94853.28;5046937;28;20241;-65
2022/08/24 02:04:45;;;;;;;19.65;17.65;;;;;;;18.96;nan;94862.44;5043824;28;20309;-63
2022/08/24 02:07:12;;;;;;;23.23;17.20;;;;;;;18.90;nan;94866.25;5046492;28;20268;-66
2022/08/24 02:09:40;;;;;;;23.00;17.10;;;;;;;19.14;nan;94868.06;5046023;28;20206;-65
2022/08/24 02:12:07;;;;;;;20.02;17.90;;;;;;;18.99;nan;94865.63;5045002;28;20584;-65
2022/08/24 02:14:35;;;;;;;21.92;18.77;;;;;;;18.92;nan;94868.72;5045248;28;20722;-65
2022/08/24 02:17:03;;;;;;;21.88;18.13;;;;;;;18.93;nan;94881.50;5046111;28;20202;-66
2022/08/24 02:19:30;;;;;;;18.98;17.15;;;;;;;19.20;nan;94880.50;5044912;28;20215;-67
2022/08/24 02:21:57;;;;;;;21.33;16.52;;;;;;;19.47;nan;94875.97;5049066;28;20209;-67
2022/08/24 02:24:24;;;;;;;24.23;17.98;;;;;;;19.43;nan;94878.88;5046140;28;20198;-67
2022/08/24 02:26:50;;;;;;;27.88;19.25;;;;;;;19.44;nan;94871.03;5048108;28;20303;-67
2022/08/24 02:29:17;;;;;;;18.55;16.08;;;;;;;19.49;nan;94879.28;5047350;28;20205;-66
2022/08/24 02:31:44;;;;;;;27.95;17.35;;;;;;;19.54;nan;94879.81;5047744;28;20198;-66
2022/08/24 02:34:12;;;;;;;18.92;16.27;;;;;;;19.60;nan;94884.50;5048023;28;20210;-66
2022/08/24 02:36:39;;;;;;;21.70;17.25;;;;;;;19.34;nan;94885.50;5047746;28;20573;-66
2022/08/24 02:39:07;;;;;;;24.45;17.35;;;;;;;19.24;nan;94879.38;5048392;28;20217;-66
2022/08/24 02:41:34;;;;;;;23.45;18.65;;;;;;;19.13;nan;94887.00;5047908;28;20215;-67
2022/08/24 02:44:01;;;;;;;25.20;18.50;;;;;;;19.03;nan;94882.53;5048918;28;20234;-66
2022/08/24 02:46:30;;;;;;;23.80;18.20;;;;;;;18.91;nan;94888.50;5046647;28;20238;-66
2022/08/24 02:48:58;;;;;;;24.98;18.63;;;;;;;19.02;nan;94886.03;5047174;28;20264;-67
2022/08/24 02:51:29;;;;;;;22.65;18.45;;;;;;;18.94;nan;94890.88;5047070;28;20664;-67
2022/08/24 02:53:57;;;;;;;27.00;20.25;;;;;;;18.91;nan;94893.66;5046682;28;20202;-67
2022/08/24 02:56:23;;;;;;;25.20;20.15;;;;;;;18.70;nan;94895.13;5045922;28;20237;-66
2022/08/24 02:58:51;;;;;;;22.17;19.70;;;;;;;18.69;nan;94898.63;5047749;28;20672;-67
2022/08/24 03:01:17;;;;;;;21.42;18.92;;;;;;;18.69;nan;94903.78;5045232;28;20199;-67
2022/08/24 03:03:45;;;;;;;25.42;22.08;;;;;;;18.59;nan;94897.56;5048873;28;20266;-67
2022/08/24 03:06:12;;;;;;;24.10;19.90;;;;;;;18.52;nan;94906.63;5045935;28;20605;-66
2022/08/24 03:08:40;;;;;;;24.80;19.75;;;;;;;18.50;nan;94905.91;5048068;28;20657;-67
2022/08/24 03:11:08;;;;;;;22.17;18.38;;;;;;;18.68;nan;94889.25;5047026;28;20292;-66
2022/08/24 03:13:36;;;;;;;23.73;19.83;;;;;;;18.83;nan;94885.63;5047917;28;21373;-66
2022/08/24 03:16:04;;;;;;;24.60;20.50;;;;;;;18.94;nan;94892.63;5047012;28;20210;-66
2022/08/24 03:18:30;;;;;;;24.63;19.25;;;;;;;18.88;nan;94893.88;5047363;28;20676;-66
2022/08/24 03:20:59;;;;;;;25.60;20.00;;;;;;;18.89;nan;94899.84;5047536;28;20224;-66
2022/08/24 03:23:27;;;;;;;23.38;19.17;;;;;;;18.85;nan;94901.78;5047918;28;20256;-66
2022/08/24 03:25:55;;;;;;;21.10;17.50;;;;;;;18.84;nan;94895.00;5047717;28;20230;-66
2022/08/24 03:28:25;;;;;;;22.45;19.15;;;;;;;18.64;nan;94892.97;5047187;28;20226;-67
2022/08/24 03:30:52;;;;;;;21.02;18.65;;;;;;;18.59;nan;94897.56;5047251;28;20711;-66
2022/08/24 03:33:20;;;;;;;23.70;20.73;;;;;;;18.54;nan;94900.47;5048197;28;20214;-67
2022/08/24 03:35:46;;;;;;;24.13;19.83;;;;;;;18.55;nan;94902.13;5045927;28;20313;-67
2022/08/24 03:38:13;;;;;;;24.90;18.42;;;;;;;18.59;nan;94902.72;5045541;28;20210;-67
2022/08/24 03:40:41;;;;;;;23.10;19.52;;;;;;;18.71;nan;94908.81;5045432;28;20206;-66
2022/08/24 03:43:44;;;;;;;21.52;18.10;;;;;;;18.80;nan;94908.22;5045462;28;20276;-67
2022/08/24 03:45:56;;;;;;;21.13;18.85;;;;;;;19.09;nan;94901.03;5044714;28;20876;-67
2022/08/24 03:48:23;;;;;;;25.55;18.17;;;;;;;19.10;nan;94903.50;5045073;28;20229;-67
2022/08/24 03:50:50;;;;;;;21.40;19.00;;;;;;;18.92;nan;94905.59;5044939;28;20600;-67
2022/08/24 03:53:18;;;;;;;21.33;17.80;;;;;;;18.92;nan;94904.78;5046206;28;20206;-67
2022/08/24 03:55:44;;;;;;;20.48;16.52;;;;;;;19.06;nan;94906.38;5046493;28;20207;-67
2022/08/24 03:58:13;;;;;;;20.75;16.90;;;;;;;18.97;nan;94900.97;5046625;28;20260;-67
2022/08/24 04:00:41;;;;;;;21.38;16.73;;;;;;;18.90;nan;94902.31;5046836;28;20696;-67
2022/08/24 04:03:08;;;;;;;22.23;17.17;;;;;;;18.93;nan;94902.09;5047586;28;20664;-67
2022/08/24 04:05:35;;;;;;;22.45;18.85;;;;;;;18.79;nan;94899.66;5045184;28;20318;-66
2022/08/24 04:08:03;;;;;;;22.48;18.63;;;;;;;18.68;nan;94904.69;5046843;28;20287;-66
2022/08/24 04:10:29;;;;;;;20.55;18.38;;;;;;;18.77;nan;94905.84;5053860;28;20289;-67
2022/08/24 04:12:56;;;;;;;19.38;16.70;;;;;;;19.14;nan;94917.00;5052792;28;20206;-66
2022/08/24 04:15:24;;;;;;;19.08;16.75;;;;;;;19.52;nan;94909.19;5054234;28;20210;-67
2022/08/24 04:17:51;;;;;;;20.08;17.30;;;;;;;19.40;nan;94905.69;5052176;28;20202;-68
2022/08/24 04:20:18;;;;;;;18.48;16.63;;;;;;;19.41;nan;94917.66;5053280;28;21448;-66
2022/08/24 04:22:45;;;;;;;21.75;16.73;;;;;;;19.61;nan;94911.94;5053597;28;20260;-67
2022/08/24 04:25:12;;;;;;;23.08;16.15;;;;;;;19.78;nan;94920.22;5053588;28;20598;-67
2022/08/24 04:27:40;;;;;;;19.63;16.45;;;;;;;19.92;nan;94914.88;5053429;28;20222;-66
2022/08/24 04:30:08;;;;;;;15.55;13.95;;;;;;;20.09;nan;94909.31;5052130;28;20279;-67
2022/08/24 04:32:36;;;;;;;17.92;16.08;;;;;;;20.24;nan;94913.38;5053091;28;20206;-67
2022/08/24 04:35:03;;;;;;;20.27;17.40;;;;;;;20.48;nan;94915.91;5052385;28;20202;-67
2022/08/24 04:37:30;;;;;;;17.83;16.13;;;;;;;20.58;nan;94913.44;5052571;28;20209;-66
2022/08/24 04:39:57;;;;;;;19.30;16.33;;;;;;;20.75;nan;94918.19;5052653;28;20279;-67
2022/08/24 04:42:24;;;;;;;24.33;16.30;;;;;;;20.81;nan;94922.84;5052370;28;20244;-67
2022/08/24 04:44:51;;;;;;;17.90;16.05;;;;;;;20.91;nan;94918.66;5052945;28;20707;-67
2022/08/24 04:47:18;;;;;;;25.75;16.42;;;;;;;20.72;nan;94928.75;5052991;28;20222;-67
2022/08/24 04:49:46;;;;;;;16.58;14.95;;;;;;;20.41;nan;94934.53;5053159;28;20210;-67
2022/08/24 04:52:13;;;;;;;17.20;13.75;;;;;;;20.54;nan;94930.13;5053469;28;20214;-67
2022/08/24 04:54:39;;;;;;;15.88;14.23;;;;;;;20.82;nan;94921.09;5052414;28;20202;-66
2022/08/24 04:57:06;;;;;;;19.40;13.85;;;;;;;21.08;nan;94916.53;5053053;28;20292;-66
2022/08/24 04:59:33;;;;;;;16.65;14.85;;;;;;;21.09;nan;94915.59;5051576;28;20304;-66
2022/08/24 05:01:59;;;;;;;19.70;14.10;;;;;;;21.26;nan;94922.91;5052746;28;20238;-66
2022/08/24 05:04:26;;;;;;;22.00;13.85;;;;;;;21.05;nan;94926.16;5051487;28;20206;-67
2022/08/24 05:06:54;;;;;;;18.55;12.73;;;;;;;21.16;nan;94916.75;5052129;28;20230;-66
2022/08/24 05:09:21;;;;;;;18.95;13.60;;;;;;;21.03;nan;94922.88;5053066;28;20237;-67
2022/08/24 05:11:48;;;;;;;13.75;12.35;;;;;;;20.91;nan;94923.81;5051762;28;20948;-66
2022/08/24 05:14:15;;;;;;;25.85;15.20;;;;;;;20.92;nan;94914.31;5051928;28;20665;-67
2022/08/24 05:16:41;;;;;;;15.30;13.68;;;;;;;21.32;nan;94922.41;5052849;28;20246;-67
2022/08/24 05:19:08;;;;;;;19.33;15.90;;;;;;;21.55;nan;94908.50;5053527;28;20202;-67
2022/08/24 05:21:35;;;;;;;17.30;14.52;;;;;;;21.90;nan;94918.63;5048873;28;20287;-67
2022/08/24 05:24:04;;;;;;;20.30;14.05;;;;;;;22.10;nan;94924.81;5049283;28;20232;-66
2022/08/24 05:26:31;;;;;;;16.88;12.32;;;;;;;22.42;nan;94918.78;5049483;28;20198;-67
2022/08/24 05:29:00;;;;;;;12.23;10.75;;;;;;;22.83;nan;94912.75;5049608;28;20234;-66
2022/08/24 05:31:29;;;;;;;13.50;11.07;;;;;;;23.17;nan;94915.91;5049601;28;20251;-66
2022/08/24 05:33:56;;;;;;;11.65;10.55;;;;;;;23.47;nan;94913.28;5049714;28;20210;-66
2022/08/24 05:36:25;;;;;;;14.45;10.10;;;;;;;23.85;nan;94906.53;5046486;28;20550;-66
2022/08/24 05:38:55;;;;;;;13.18;10.13;;;;;;;24.56;nan;94912.25;5048211;28;20268;-66
2022/08/24 05:41:24;;;;;;;11.35;10.23;;;;;;;25.42;nan;94895.56;5047494;28;20203;-67
2022/08/24 05:43:52;;;;;;;14.75;10.40;;;;;;;26.14;nan;94902.50;5046624;28;20685;-66
2022/08/24 05:46:19;;;;;;;10.82;9.88;;;;;;;26.91;nan;94908.78;5046445;28;20195;-66
2022/08/24 05:48:46;;;;;;;11.90;9.40;;;;;;;26.97;nan;94905.59;5047442;28;20222;-68
2022/08/24 05:51:13;;;;;;;11.23;8.48;;;;;;;27.07;nan;94906.28;5047130;28;20588;-66
2022/08/24 05:53:41;;;;;;;16.98;10.82;;;;;;;27.83;nan;94898.41;5048059;28;20218;-66
2022/08/24 05:56:09;;;;;;;12.73;9.23;;;;;;;27.97;nan;94896.94;5047936;28;20222;-68
2022/08/24 05:58:38;;;;;;;35.20;17.48;;;;;;;28.55;nan;94893.41;5048764;28;20303;-67
2022/08/24 06:01:07;;;;;;;27.77;15.75;;;;;;;29.04;nan;94894.16;5048170;28;20750;-67
2022/08/24 06:03:34;;;;;;;21.63;13.70;;;;;;;29.48;nan;94897.13;5046685;28;20341;-66
2022/08/24 06:06:02;;;;;;;18.48;10.63;;;;;;;30.04;nan;94892.59;5048203;28;21866;-66
2022/08/24 06:08:29;;;;;;;17.05;10.73;;;;;;;29.74;nan;94892.41;5049670;28;20230;-67
2022/08/24 06:10:56;;;;;;;11.27;10.15;;;;;;;29.25;nan;94897.03;5047386;28;20644;-67
2022/08/24 06:13:23;;;;;;;9.65;8.65;;;;;;;28.97;nan;94899.25;5048540;28;20267;-67
2022/08/24 06:16:02;;;;;;;8.75;8.05;;;;;;;28.96;nan;94902.84;5049318;28;20716;-67
2022/08/24 06:18:29;;;;;;;9.82;7.70;;;;;;;29.02;nan;94896.94;5048567;28;20206;-66
2022/08/24 06:20:56;;;;;;;8.57;7.57;;;;;;;29.94;nan;94894.59;5048695;28;20544;-65
2022/08/24 06:23:23;;;;;;;7.35;6.85;;;;;;;30.38;nan;94895.63;5047759;28;20293;-65
2022/08/24 06:28:35;;;;;;;8.32;7.32;;;;;;;31.31;nan;94902.28;5048403;28;20282;-66
2022/08/24 06:31:06;;;;;;;7.55;7.00;;;;;;;31.43;nan;94893.75;5047897;28;20213;-66
2022/08/24 06:33:33;;;;;;;10.05;9.05;;;;;;;31.99;nan;94896.63;5046395;28;20513;-66
2022/08/24 06:35:59;;;;;;;9.38;8.48;;;;;;;32.23;nan;94895.50;5048199;28;20264;-68
2022/08/24 06:38:26;;;;;;;9.70;8.75;;;;;;;32.51;nan;94889.44;5046539;28;20211;-67
2022/08/24 06:40:53;;;;;;;8.82;7.60;;;;;;;32.89;nan;94888.16;5047571;28;20211;-67
2022/08/24 06:43:20;;;;;;;8.43;7.60;;;;;;;33.23;nan;94894.44;5047801;28;21191;-67
2022/08/24 06:45:47;;;;;;;7.70;7.00;;;;;;;32.92;nan;94895.66;5047850;28;20207;-68
2022/08/24 06:48:15;;;;;;;11.77;8.35;;;;;;;32.47;nan;94883.75;5047547;28;20228;-67
2022/08/24 06:50:42;;;;;;;10.98;8.45;;;;;;;31.81;nan;94891.00;5047968;28;20749;-67
2022/08/24 06:53:13;;;;;;;7.93;6.32;;;;;;;31.30;nan;94895.41;5047097;28;20632;-67
2022/08/24 06:55:44;;;;;;;6.00;5.47;;;;;;;30.55;nan;94900.72;5048212;28;20270;-67
2022/08/24 06:58:11;;;;;;;7.75;6.97;;;;;;;30.01;nan;94908.66;5046842;28;20256;-66
2022/08/24 07:00:38;;;;;;;8.32;7.47;;;;;;;29.07;nan;94899.88;5047429;28;20289;-66
2022/08/24 07:03:04;;;;;;;9.40;7.35;;;;;;;28.67;nan;94908.59;5047617;28;20230;-66
2022/08/24 07:05:33;;;;;;;8.40;6.82;;;;;;;28.06;nan;94914.28;5047380;28;20272;-66
2022/08/24 07:08:00;;;;;;;6.50;5.90;;;;;;;28.14;nan;94918.72;5047214;28;20635;-66
2022/08/24 07:10:27;;;;;;;6.68;6.18;;;;;;;29.08;nan;94914.59;5048073;28;20198;-67
2022/08/24 07:12:54;;;;;;;8.23;6.28;;;;;;;30.06;nan;94917.63;5047046;28;20202;-66
2022/08/24 07:15:20;;;;;;;6.22;5.82;;;;;;;31.02;nan;94922.25;5047256;28;20264;-67
2022/08/24 07:17:47;;;;;;;8.18;5.85;;;;;;;31.62;nan;94916.03;5047336;28;20651;-67
2022/08/24 07:20:16;;;;;;;7.53;6.72;;;;;;;32.27;nan;94916.97;5047218;28;20203;-68
2022/08/24 07:22:44;;;;;;;6.80;6.30;;;;;;;32.46;nan;94921.59;5046035;28;20212;-68
2022/08/24 07:25:12;;;;;;;10.32;6.30;;;;;;;32.32;nan;94928.56;5044982;28;20722;-67
2022/08/24 07:27:39;;;;;;;5.43;4.90;;;;;;;31.39;nan;94929.28;5044339;28;20210;-66
2022/08/24 07:30:10;;;;;;;9.80;5.60;;;;;;;31.10;nan;94931.84;5045464;28;20924;-67
2022/08/24 07:32:36;;;;;;;14.05;6.13;;;;;;;30.18;nan;94935.59;5044695;28;20202;-67
2022/08/24 07:35:04;;;;;;;6.15;5.75;;;;;;;29.91;nan;94923.78;5045214;28;20215;-67
2022/08/24 07:37:31;;;;;;;8.65;6.57;;;;;;;29.98;nan;94924.69;5045182;28;20207;-67
2022/08/24 07:39:59;;;;;;;5.63;5.20;;;;;;;29.71;nan;94933.84;5046627;28;20243;-66
2022/08/24 07:42:26;;;;;;;12.15;7.80;;;;;;;29.54;nan;94922.63;5046423;28;20225;-66
2022/08/24 07:44:53;;;;;;;10.82;6.95;;;;;;;29.31;nan;94921.72;5046369;28;20202;-66
2022/08/24 07:47:20;;;;;;;7.40;6.75;;;;;;;29.35;nan;94928.25;5046181;28;20752;-66
2022/08/24 07:49:47;;;;;;;9.00;7.43;;;;;;;29.55;nan;94919.03;5047310;28;20230;-66
2022/08/24 07:52:14;;;;;;;10.80;6.82;;;;;;;29.34;nan;94924.81;5047249;28;20601;-66
2022/08/24 07:54:40;;;;;;;9.70;8.50;;;;;;;28.91;nan;94915.63;5047264;28;20202;-66
2022/08/24 07:57:09;;;;;;;5.25;4.95;;;;;;;28.04;nan;94921.47;5047206;28;20230;-66
2022/08/24 07:59:36;;;;;;;6.13;5.47;;;;;;;28.01;nan;94921.78;5047408;28;20367;-67
2022/08/24 08:02:04;;;;;;;6.65;5.22;;;;;;;27.86;nan;94907.72;5046555;28;20711;-66
2022/08/24 08:04:31;;;;;;;7.30;5.90;;;;;;;27.71;nan;94910.16;5046843;28;20210;-68
2022/08/24 08:06:59;;;;;;;5.50;5.10;;;;;;;27.37;nan;94907.56;5045653;28;20929;-67
2022/08/24 08:09:26;;;;;;;7.30;5.60;;;;;;;27.32;nan;94907.19;5046918;28;20228;-66
2022/08/24 08:11:53;;;;;;;4.65;4.43;;;;;;;26.65;nan;94911.38;5046805;28;20194;-66
2022/08/24 08:14:21;;;;;;;5.38;4.85;;;;;;;26.67;nan;94910.25;5046529;28;20241;-66
2022/08/24 08:16:48;;;;;;;7.55;5.45;;;;;;;26.46;nan;94901.97;5046288;28;20210;-66
2022/08/24 08:19:15;;;;;;;4.65;4.35;;;;;;;26.82;nan;94902.69;5045861;28;20276;-67
2022/08/24 08:24:27;;;;;;;5.85;5.30;;;;;;;27.23;nan;94895.09;5047133;28;20209;-67
2022/08/24 08:26:54;;;;;;;6.03;4.68;;;;;;;27.30;nan;94890.88;5045402;28;20206;-65
2022/08/24 08:29:23;;;;;;;6.18;5.68;;;;;;;27.46;nan;94893.56;5046595;28;20240;-65
2022/08/24 08:31:50;;;;;;;7.90;4.88;;;;;;;27.38;nan;94901.34;5045592;28;20758;-65
2022/08/24 08:34:18;;;;;;;5.32;4.93;;;;;;;27.65;nan;94903.75;5045622;28;20234;-65
2022/08/24 08:36:45;;;;;;;5.03;4.63;;;;;;;27.46;nan;94898.78;5046186;28;20207;-66
2022/08/24 08:39:14;;;;;;;5.70;4.22;;;;;;;27.17;nan;94895.72;5046218;28;20198;-66
2022/08/24 08:42:12;;;;;;;3.35;3.05;;;;;;;26.23;nan;94904.19;5046700;28;20652;-66
2022/08/24 08:44:54;;;;;;;4.82;3.55;;;;;;;25.80;nan;94899.72;5046281;28;20203;-66
2022/08/24 08:47:42;;;;;;;4.25;3.72;;;;;;;26.12;nan;94899.22;5044044;28;21407;-66
2022/08/24 08:50:16;;;;;;;3.85;3.45;;;;;;;26.34;nan;94895.34;5046960;28;20226;-66
2022/08/24 08:53:17;;;;;;;5.57;4.05;;;;;;;26.54;nan;94898.59;5046667;28;20215;-66
2022/08/24 08:55:52;;;;;;;4.38;3.83;;;;;;;26.33;nan;94897.13;5047772;28;20259;-66
2022/08/24 08:58:47;;;;;;;4.32;4.00;;;;;;;26.01;nan;94900.25;5048909;28;20206;-66
2022/08/24 09:01:24;;;;;;;6.00;3.65;;;;;;;25.88;nan;94893.78;5049468;28;20267;-67
2022/08/24 09:04:08;;;;;;;4.53;3.60;;;;;;;25.68;nan;94901.75;5049626;28;21209;-67
2022/08/24 09:06:48;;;;;;;6.95;3.60;;;;;;;25.81;nan;94901.38;5049574;28;22347;-66
2022/08/24 09:09:41;;;;;;;3.92;3.60;;;;;;;25.75;nan;94901.94;5049053;28;20222;-67
2022/08/24 09:12:16;;;;;;;8.10;4.03;;;;;;;25.98;nan;94899.75;5049827;28;20206;-67
2022/08/24 09:15:02;;;;;;;4.70;3.53;;;;;;;26.15;nan;94893.72;5048207;28;20674;-67
2022/08/24 09:17:44;;;;;;;3.88;3.67;;;;;;;26.27;nan;94902.09;5047515;28;20272;-68
2022/08/24 09:20:31;;;;;;;4.63;3.63;;;;;;;26.53;nan;94899.56;5048503;28;20705;-67
2022/08/24 09:23:08;;;;;;;3.38;3.08;;;;;;;26.55;nan;94905.44;5046207;28;20210;-67
2022/08/24 09:25:42;;;;;;;5.45;4.10;;;;;;;26.90;nan;94896.72;5045522;28;20236;-67
2022/08/24 09:28:16;;;;;;;6.50;4.13;;;;;;;26.92;nan;94898.19;5045488;28;20752;-68
2022/08/24 09:31:04;;;;;;;6.20;3.83;;;;;;;26.65;nan;94900.97;5047675;28;20219;-68
2022/08/24 09:33:37;;;;;;;4.05;3.63;;;;;;;26.19;nan;94894.22;5049047;28;20210;-67
2022/08/24 09:36:08;;;;;;;6.60;3.92;;;;;;;26.29;nan;94890.56;5047083;28;20275;-67
2022/08/24 09:38:58;;;;;;;4.97;4.00;;;;;;;26.56;nan;94896.66;5045521;28;20263;-67
2022/08/24 09:41:55;;;;;;;6.70;4.10;;;;;;;27.04;nan;94880.50;5046971;28;20202;-67
2022/08/24 09:44:55;;;;;;;5.00;3.95;;;;;;;27.61;nan;94873.72;5046022;28;21007;-67
2022/08/24 09:47:57;;;;;;;4.60;3.60;;;;;;;28.08;nan;94875.75;5046199;28;20308;-67
2022/08/24 09:50:58;;;;;;;5.82;5.15;;;;;;;27.76;nan;94866.91;5046933;28;20394;-66
2022/08/24 09:53:55;;;;;;;6.53;3.60;;;;;;;27.63;nan;94866.56;5049252;28;20253;-66
2022/08/24 09:56:45;;;;;;;5.82;3.53;;;;;;;28.08;nan;94854.84;5048705;28;20210;-66
2022/08/24 09:59:46;;;;;;;4.53;4.13;;;;;;;27.36;nan;94864.16;5048225;28;20707;-67
2022/08/24 10:02:32;;;;;;;3.63;3.42;;;;;;;26.74;nan;94853.09;5048840;28;20302;-67
2022/08/24 10:05:08;;;;;;;3.92;3.72;;;;;;;26.83;nan;94844.34;5048470;28;20255;-67
2022/08/24 10:07:46;;;;;;;5.43;3.90;;;;;;;27.11;nan;94834.56;5047548;28;20279;-67
2022/08/24 10:10:24;;;;;;;4.53;3.70;;;;;;;27.53;nan;94839.72;5047692;28;20657;-66
2022/08/24 10:13:03;;;;;;;4.63;3.92;;;;;;;27.38;nan;94831.72;5048675;28;20295;-67
2022/08/24 10:15:34;;;;;;;4.55;4.15;;;;;;;27.33;nan;94838.38;5048946;28;20224;-66
2022/08/24 10:18:21;;;;;;;4.25;3.95;;;;;;;27.45;nan;94829.28;5048007;28;20238;-67
2022/08/24 10:21:00;;;;;;;6.65;4.57;;;;;;;27.23;nan;94830.69;5048406;28;20231;-67
2022/08/24 10:23:53;;;;;;;5.95;4.43;;;;;;;27.35;nan;94820.78;5048348;28;20228;-66
2022/08/24 10:26:29;;;;;;;5.30;4.82;;;;;;;27.56;nan;94823.75;5047968;28;20202;-67
2022/08/24 10:29:13;;;;;;;6.82;5.90;;;;;;;27.27;nan;94818.94;5047797;28;20194;-67
2022/08/24 10:31:51;;;;;;;5.38;4.97;;;;;;;27.48;nan;94826.34;5049059;28;20239;-67
2022/08/24 10:34:34;;;;;;;4.95;4.55;;;;;;;27.20;nan;94827.59;5048334;28;20195;-68
2022/08/24 10:37:23;;;;;;;9.48;4.70;;;;;;;26.57;nan;94825.31;5048218;28;20747;-66
2022/08/24 10:40:11;;;;;;;4.57;4.18;;;;;;;26.70;nan;94828.31;5048437;28;20256;-66
2022/08/24 10:46:35;;;;;;;5.20;4.80;;;;;;;26.58;nan;94825.16;5028435;28;20769;-66
2022/08/24 10:49:54;;;;;;;4.70;4.35;;;;;;;26.77;nan;94821.50;5016457;28;20210;-66
2022/08/24 10:52:53;;;;;;;5.60;5.00;;;;;;;27.02;nan;94823.28;5047530;28;20630;-66
2022/08/24 10:55:25;;;;;;;7.05;4.80;;;;;;;26.97;nan;94822.94;5047812;28;20221;-68
2022/08/24 10:58:06;;;;;;;8.00;4.60;;;;;;;26.87;nan;94822.22;5048631;28;20303;-68
2022/08/24 11:00:34;;;;;;;4.70;4.30;;;;;;;26.77;nan;94826.72;5047533;28;20547;-67
2022/08/24 11:03:07;;;;;;;5.30;4.55;;;;;;;26.66;nan;94827.00;5046618;28;20241;-68
2022/08/24 11:05:39;;;;;;;5.97;5.00;;;;;;;26.39;nan;94827.97;5048190;28;20230;-68
2022/08/24 11:08:07;;;;;;;5.10;4.53;;;;;;;26.66;nan;94834.81;5047060;28;20222;-66
2022/08/24 11:10:37;;;;;;;7.20;4.63;;;;;;;27.08;nan;94833.09;5047205;28;20218;-68
2022/08/24 11:13:21;;;;;;;6.78;4.32;;;;;;;27.33;nan;94817.50;5046616;28;20252;-68
2022/08/24 11:15:51;;;;;;;6.25;4.20;;;;;;;27.25;nan;94826.13;5045318;28;20371;-68
2022/08/24 11:18:18;;;;;;;5.63;5.03;;;;;;;27.28;nan;94814.56;5046298;28;21696;-68
2022/08/24 11:20:47;;;;;;;10.70;5.22;;;;;;;27.33;nan;94812.28;5047732;28;20202;-68
2022/08/24 11:23:17;;;;;;;5.03;4.63;;;;;;;27.40;nan;94813.28;5046306;28;20206;-68
2022/08/24 11:26:01;;;;;;;6.40;3.80;;;;;;;26.75;nan;94806.00;5047786;28;20206;-66
2022/08/24 11:28:34;;;;;;;4.47;4.07;;;;;;;26.69;nan;94811.88;5046891;28;20896;-67
2022/08/24 11:31:02;;;;;;;5.72;4.45;;;;;;;27.13;nan;94806.53;5046657;28;20248;-66
2022/08/24 11:33:33;;;;;;;5.47;4.30;;;;;;;27.24;nan;94808.00;5046245;28;20206;-66
2022/08/24 11:36:01;;;;;;;8.88;3.88;;;;;;;27.24;nan;94810.63;5047788;28;20638;-68
2022/08/24 11:38:33;;;;;;;6.63;4.05;;;;;;;27.33;nan;94807.06;5047202;28;20210;-67
2022/08/24 11:41:09;;;;;;;6.13;4.20;;;;;;;27.20;nan;94804.13;5047092;28;20227;-66
2022/08/24 11:43:58;;;;;;;8.18;4.72;;;;;;;26.79;nan;94809.13;5045659;28;20295;-67
2022/08/24 11:46:32;;;;;;;5.72;3.92;;;;;;;26.88;nan;94802.97;5047345;28;20275;-66
2022/08/24 11:49:07;;;;;;;6.97;4.82;;;;;;;27.10;nan;94802.44;5046664;28;20225;-66
2022/08/24 11:51:45;;;;;;;6.93;4.65;;;;;;;26.99;nan;94800.09;5047679;28;20213;-66
2022/08/24 11:54:23;;;;;;;11.52;5.60;;;;;;;26.91;nan;94792.25;5046395;28;20214;-66
2022/08/24 11:57:04;;;;;;;7.38;4.55;;;;;;;26.77;nan;94800.63;5047233;28;20212;-66
2022/08/24 11:59:44;;;;;;;5.40;4.88;;;;;;;26.73;nan;94796.72;5045833;28;20652;-67
2022/08/24 12:02:17;;;;;;;8.30;5.45;;;;;;;26.94;nan;94793.72;5046349;28;20238;-66
2022/08/24 12:04:53;;;;;;;5.22;4.82;;;;;;;26.74;nan;94795.72;5046631;28;20199;-66
2022/08/24 12:07:32;;;;;;;6.20;5.47;;;;;;;26.61;nan;94800.56;5047070;28;20198;-64
2022/08/24 12:10:23;;;;;;;5.57;5.07;;;;;;;26.34;nan;94807.59;5046592;28;20225;-63
2022/08/24 12:12:54;;;;;;;6.22;5.30;;;;;;;26.15;nan;94799.13;5047489;28;20225;-64